sensor_id;sensor_type;location;lat;lon;timestamp;pressure;altitude;pressure_sealevel;temperature;humidity
8047;BME280;74083;42.516;23.358;2023-11-18T00:01:36;87526.06;;;9.21;61.69
8047;BME280;74083;42.516;23.358;2023-11-18T00:04:22;87542.97;;;9.19;62.17
8047;BME280;74083;42.516;23.358;2023-11-18T00:07:07;87523.66;;;9.20;61.92
8047;BME280;74083;42.516;23.358;2023-11-18T00:09:53;87496.97;;;9.19;61.71
8047;BME280;74083;42.516;23.358;2023-11-18T00:12:39;87519.56;;;9.19;61.71
8047;BME280;74083;42.516;23.358;2023-11-18T00:15:27;87536.47;;;9.17;61.46
8047;BME280;74083;42.516;23.358;2023-11-18T00:18:13;87543.09;;;9.18;61.29
8047;BME280;74083;42.516;23.358;2023-11-18T00:20:59;87542.44;;;9.16;61.56
8047;BME280;74083;42.516;23.358;2023-11-18T00:23:46;87544.97;;;9.16;61.28
8047;BME280;74083;42.516;23.358;2023-11-18T00:26:32;87531.69;;;9.14;61.19
8047;BME280;74083;42.516;23.358;2023-11-18T00:29:18;87535.00;;;9.14;61.19
8047;BME280;74083;42.516;23.358;2023-11-18T00:32:06;87546.78;;;9.14;60.90
8047;BME280;74083;42.516;23.358;2023-11-18T00:34:52;87544.41;;;9.12;61.00
8047;BME280;74083;42.516;23.358;2023-11-18T00:37:38;87526.81;;;9.12;61.12
8047;BME280;74083;42.516;23.358;2023-11-18T00:40:24;87526.00;;;9.12;61.16
8047;BME280;74083;42.516;23.358;2023-11-18T00:43:09;87527.72;;;9.11;61.07
8047;BME280;74083;42.516;23.358;2023-11-18T00:45:55;87527.72;;;9.11;61.08
8047;BME280;74083;42.516;23.358;2023-11-18T00:48:44;87527.06;;;9.09;60.90
8047;BME280;74083;42.516;23.358;2023-11-18T00:51:30;87540.44;;;9.10;60.66
8047;BME280;74083;42.516;23.358;2023-11-18T00:54:16;87556.28;;;9.10;60.58
8047;BME280;74083;42.516;23.358;2023-11-18T00:57:01;87557.22;;;9.09;60.83
8047;BME280;74083;42.516;23.358;2023-11-18T00:59:47;87555.50;;;9.10;60.79
8047;BME280;74083;42.516;23.358;2023-11-18T01:02:34;87563.94;;;9.09;61.06
8047;BME280;74083;42.516;23.358;2023-11-18T01:05:21;87565.81;;;9.07;60.73
8047;BME280;74083;42.516;23.358;2023-11-18T01:08:07;87565.00;;;9.06;60.81
8047;BME280;74083;42.516;23.358;2023-11-18T01:10:53;87566.72;;;9.06;60.61
8047;BME280;74083;42.516;23.358;2023-11-18T01:13:39;87575.06;;;9.06;60.61
8047;BME280;74083;42.516;23.358;2023-11-18T01:16:25;87591.19;;;9.04;60.64
8047;BME280;74083;42.516;23.358;2023-11-18T01:19:12;87580.44;;;9.01;60.54
8047;BME280;74083;42.516;23.358;2023-11-18T01:21:59;87582.19;;;9.01;60.79
8047;BME280;74083;42.516;23.358;2023-11-18T01:24:49;87580.56;;;9.00;60.63
8047;BME280;74083;42.516;23.358;2023-11-18T01:27:36;87587.97;;;9.01;60.66
8047;BME280;74083;42.516;23.358;2023-11-18T01:30:22;87582.28;;;8.99;60.56
8047;BME280;74083;42.516;23.358;2023-11-18T01:33:08;87594.84;;;8.99;60.49
8047;BME280;74083;42.516;23.358;2023-11-18T01:35:54;87584.78;;;8.99;60.46
8047;BME280;74083;42.516;23.358;2023-11-18T01:38:41;87578.31;;;8.97;60.39
8047;BME280;74083;42.516;23.358;2023-11-18T01:41:27;87578.97;;;8.99;60.41
8047;BME280;74083;42.516;23.358;2023-11-18T01:44:13;87580.94;;;8.95;60.73
8047;BME280;74083;42.516;23.358;2023-11-18T01:46:59;87569.97;;;8.96;60.43
8047;BME280;74083;42.516;23.358;2023-11-18T01:49:49;87570.13;;;8.95;60.74
8047;BME280;74083;42.516;23.358;2023-11-18T01:52:35;87570.13;;;8.95;60.61
8047;BME280;74083;42.516;23.358;2023-11-18T01:55:23;87571.81;;;8.94;60.65
8047;BME280;74083;42.516;23.358;2023-11-18T01:58:08;87581.06;;;8.94;60.67
8047;BME280;74083;42.516;23.358;2023-11-18T02:00:55;87586.91;;;8.94;60.62
8047;BME280;74083;42.516;23.358;2023-11-18T02:03:41;87576.97;;;8.93;60.80
8047;BME280;74083;42.516;23.358;2023-11-18T02:06:27;87576.16;;;8.92;60.51
8047;BME280;74083;42.516;23.358;2023-11-18T02:09:13;87567.53;;;8.85;60.44
8047;BME280;74083;42.516;23.358;2023-11-18T02:12:13;87570.34;;;8.92;60.52
8047;BME280;74083;42.516;23.358;2023-11-18T02:15:03;87573.88;;;8.89;60.21
8047;BME280;74083;42.516;23.358;2023-11-18T02:17:53;87584.75;;;8.90;60.52
8047;BME280;74083;42.516;23.358;2023-11-18T02:20:42;87590.69;;;8.89;60.26
8047;BME280;74083;42.516;23.358;2023-11-18T02:23:28;87579.06;;;8.88;60.24
8047;BME280;74083;42.516;23.358;2023-11-18T02:26:22;87592.41;;;8.88;60.55
8047;BME280;74083;42.516;23.358;2023-11-18T02:29:08;87579.84;;;8.88;60.03
8047;BME280;74083;42.516;23.358;2023-11-18T02:31:57;87576.69;;;8.86;60.30
8047;BME280;74083;42.516;23.358;2023-11-18T02:34:50;87582.72;;;8.84;59.87
8047;BME280;74083;42.516;23.358;2023-11-18T02:37:39;87584.56;;;8.82;60.06
8047;BME280;74083;42.516;23.358;2023-11-18T02:40:27;87573.72;;;8.81;60.34
8047;BME280;74083;42.516;23.358;2023-11-18T02:43:17;87586.28;;;8.81;60.21
8047;BME280;74083;42.516;23.358;2023-11-18T02:46:04;87580.34;;;8.82;59.89
8047;BME280;74083;42.516;23.358;2023-11-18T02:48:50;87583.66;;;8.83;59.88
8047;BME280;74083;42.516;23.358;2023-11-18T02:51:38;87569.50;;;8.82;59.90
8047;BME280;74083;42.516;23.358;2023-11-18T02:54:24;87568.03;;;8.79;60.25
8047;BME280;74083;42.516;23.358;2023-11-18T02:57:10;87577.28;;;8.79;60.12
8047;BME280;74083;42.516;23.358;2023-11-18T02:59:59;87564.84;;;8.77;60.05
8047;BME280;74083;42.516;23.358;2023-11-18T03:02:46;87575.81;;;8.76;60.35
8047;BME280;74083;42.516;23.358;2023-11-18T03:05:32;87569.19;;;8.75;60.21
8047;BME280;74083;42.516;23.358;2023-11-18T03:08:17;87562.47;;;8.76;60.06
8047;BME280;74083;42.516;23.358;2023-11-18T03:11:03;87582.69;;;8.74;60.01
8047;BME280;74083;42.516;23.358;2023-11-18T03:13:53;87596.00;;;8.75;59.85
8047;BME280;74083;42.516;23.358;2023-11-18T03:16:40;87599.47;;;8.74;59.95
8047;BME280;74083;42.516;23.358;2023-11-18T03:19:25;87606.06;;;8.75;59.98
8047;BME280;74083;42.516;23.358;2023-11-18T03:22:12;87592.72;;;8.74;59.84
8047;BME280;74083;42.516;23.358;2023-11-18T03:24:58;87586.25;;;8.72;60.03
8047;BME280;74083;42.516;23.358;2023-11-18T03:27:44;87570.38;;;8.71;59.74
8047;BME280;74083;42.516;23.358;2023-11-18T03:30:29;87577.91;;;8.71;59.58
8047;BME280;74083;42.516;23.358;2023-11-18T03:33:17;87573.78;;;8.70;60.02
8047;BME280;74083;42.516;23.358;2023-11-18T03:36:03;87555.31;;;8.71;59.54
8047;BME280;74083;42.516;23.358;2023-11-18T03:38:49;87553.84;;;8.69;59.79
8047;BME280;74083;42.516;23.358;2023-11-18T03:41:35;87566.50;;;8.67;59.51
8047;BME280;74083;42.516;23.358;2023-11-18T03:44:21;87552.66;;;8.73;59.67
8047;BME280;74083;42.516;23.358;2023-11-18T03:47:08;87570.22;;;8.73;59.46
8047;BME280;74083;42.516;23.358;2023-11-18T03:49:56;87556.47;;;8.67;59.47
8047;BME280;74083;42.516;23.358;2023-11-18T03:52:41;87583.28;;;8.67;59.38
8047;BME280;74083;42.516;23.358;2023-11-18T03:55:26;87580.09;;;8.65;59.37
8047;BME280;74083;42.516;23.358;2023-11-18T03:58:12;87570.16;;;8.63;59.49
8047;BME280;74083;42.516;23.358;2023-11-18T04:00:58;87551.03;;;8.62;59.46
8047;BME280;74083;42.516;23.358;2023-11-18T04:03:44;87528.44;;;8.62;59.14
8047;BME280;74083;42.516;23.358;2023-11-18T04:06:31;87539.94;;;8.65;58.90
8047;BME280;74083;42.516;23.358;2023-11-18T04:09:16;87554.44;;;8.61;59.13
8047;BME280;74083;42.516;23.358;2023-11-18T04:12:02;87544.16;;;8.64;59.12
8047;BME280;74083;42.516;23.358;2023-11-18T04:14:49;87530.94;;;8.62;58.79
8047;BME280;74083;42.516;23.358;2023-11-18T04:17:35;87546.25;;;8.59;58.71
8047;BME280;74083;42.516;23.358;2023-11-18T04:20:22;87532.09;;;8.58;59.02
8047;BME280;74083;42.516;23.358;2023-11-18T04:23:09;87534.59;;;8.58;59.18
8047;BME280;74083;42.516;23.358;2023-11-18T04:25:55;87543.72;;;8.59;59.13
8047;BME280;74083;42.516;23.358;2023-11-18T04:28:41;87533.81;;;8.58;59.11
8047;BME280;74083;42.516;23.358;2023-11-18T04:31:27;87517.94;;;8.57;58.97
8047;BME280;74083;42.516;23.358;2023-11-18T04:34:13;87532.22;;;8.57;59.06
8047;BME280;74083;42.516;23.358;2023-11-18T04:37:00;87549.91;;;8.55;58.96
8047;BME280;74083;42.516;23.358;2023-11-18T04:39:47;87560.31;;;8.51;57.67
8047;BME280;74083;42.516;23.358;2023-11-18T04:42:33;87568.50;;;8.32;57.01
8047;BME280;74083;42.516;23.358;2023-11-18T04:45:19;87569.97;;;8.34;56.83
8047;BME280;74083;42.516;23.358;2023-11-18T04:48:05;87576.34;;;8.38;57.69
8047;BME280;74083;42.516;23.358;2023-11-18T04:50:51;87578.63;;;8.41;57.80
8047;BME280;74083;42.516;23.358;2023-11-18T04:53:36;87579.44;;;8.42;57.77
8047;BME280;74083;42.516;23.358;2023-11-18T04:56:25;87572.81;;;8.41;57.65
8047;BME280;74083;42.516;23.358;2023-11-18T04:59:10;87581.13;;;8.41;57.75
8047;BME280;74083;42.516;23.358;2023-11-18T05:01:56;87584.44;;;8.42;58.34
8047;BME280;74083;42.516;23.358;2023-11-18T05:04:41;87575.31;;;8.41;58.32
8047;BME280;74083;42.516;23.358;2023-11-18T05:07:27;87575.44;;;8.39;58.42
8047;BME280;74083;42.516;23.358;2023-11-18T05:10:13;87577.81;;;8.41;58.32
8047;BME280;74083;42.516;23.358;2023-11-18T05:13:01;87577.03;;;8.40;58.38
8047;BME280;74083;42.516;23.358;2023-11-18T05:15:47;87583.09;;;8.38;57.55
8047;BME280;74083;42.516;23.358;2023-11-18T05:18:34;87579.09;;;8.35;57.05
8047;BME280;74083;42.516;23.358;2023-11-18T05:21:20;87593.50;;;8.33;57.55
8047;BME280;74083;42.516;23.358;2023-11-18T05:24:06;87587.44;;;8.36;57.61
8047;BME280;74083;42.516;23.358;2023-11-18T05:26:54;87586.50;;;8.37;57.93
8047;BME280;74083;42.516;23.358;2023-11-18T05:29:41;87584.94;;;8.36;57.98
8047;BME280;74083;42.516;23.358;2023-11-18T05:32:27;87583.31;;;8.35;57.66
8047;BME280;74083;42.516;23.358;2023-11-18T05:35:13;87585.16;;;8.33;56.53
8047;BME280;74083;42.516;23.358;2023-11-18T05:37:59;87588.03;;;8.28;56.37
8047;BME280;74083;42.516;23.358;2023-11-18T05:40:47;87591.53;;;8.26;56.51
8047;BME280;74083;42.516;23.358;2023-11-18T05:43:40;87602.47;;;8.25;56.61
8047;BME280;74083;42.516;23.358;2023-11-18T05:46:27;87597.47;;;8.25;57.02
8047;BME280;74083;42.516;23.358;2023-11-18T05:49:13;87610.94;;;8.24;57.01
8047;BME280;74083;42.516;23.358;2023-11-18T05:51:59;87610.94;;;8.24;57.29
8047;BME280;74083;42.516;23.358;2023-11-18T05:54:44;87615.97;;;8.24;57.44
8047;BME280;74083;42.516;23.358;2023-11-18T05:57:31;87615.03;;;8.25;57.54
8047;BME280;74083;42.516;23.358;2023-11-18T06:00:17;87632.59;;;8.25;57.95
8047;BME280;74083;42.516;23.358;2023-11-18T06:03:05;87632.72;;;8.23;57.90
8047;BME280;74083;42.516;23.358;2023-11-18T06:05:52;87621.47;;;8.18;57.95
8047;BME280;74083;42.516;23.358;2023-11-18T06:08:38;87631.25;;;8.21;57.73
8047;BME280;74083;42.516;23.358;2023-11-18T06:11:25;87632.16;;;8.20;57.85
8047;BME280;74083;42.516;23.358;2023-11-18T06:14:11;87637.88;;;8.22;57.47
8047;BME280;74083;42.516;23.358;2023-11-18T06:16:57;87651.44;;;8.19;57.57
8047;BME280;74083;42.516;23.358;2023-11-18T06:19:46;87640.50;;;8.20;57.30
8047;BME280;74083;42.516;23.358;2023-11-18T06:22:32;87643.13;;;8.19;57.36
8047;BME280;74083;42.516;23.358;2023-11-18T06:25:17;87654.97;;;8.17;56.59
8047;BME280;74083;42.516;23.358;2023-11-18T06:28:03;87660.22;;;8.14;56.20
8047;BME280;74083;42.516;23.358;2023-11-18T06:30:51;87658.88;;;8.10;55.50
8047;BME280;74083;42.516;23.358;2023-11-18T06:33:38;87658.19;;;8.08;56.09
8047;BME280;74083;42.516;23.358;2023-11-18T06:36:28;87661.63;;;8.07;57.08
8047;BME280;74083;42.516;23.358;2023-11-18T06:39:15;87664.94;;;8.07;57.25
8047;BME280;74083;42.516;23.358;2023-11-18T06:42:00;87663.34;;;8.06;57.38
8047;BME280;74083;42.516;23.358;2023-11-18T06:44:49;87647.72;;;8.03;57.09
8047;BME280;74083;42.516;23.358;2023-11-18T06:47:34;87669.03;;;8.08;57.58
8047;BME280;74083;42.516;23.358;2023-11-18T06:50:20;87659.13;;;8.07;57.20
8047;BME280;74083;42.516;23.358;2023-11-18T06:53:09;87680.91;;;8.06;57.36
8047;BME280;74083;42.516;23.358;2023-11-18T06:55:56;87663.44;;;8.05;57.39
8047;BME280;74083;42.516;23.358;2023-11-18T06:58:42;87663.56;;;8.03;57.22
8047;BME280;74083;42.516;23.358;2023-11-18T07:01:28;87660.03;;;8.06;57.58
8047;BME280;74083;42.516;23.358;2023-11-18T07:04:15;87681.00;;;8.05;57.43
8047;BME280;74083;42.516;23.358;2023-11-18T07:07:00;87668.22;;;8.08;57.42
8047;BME280;74083;42.516;23.358;2023-11-18T07:09:48;87670.19;;;8.04;57.14
8047;BME280;74083;42.516;23.358;2023-11-18T07:12:33;87683.88;;;8.00;57.17
8047;BME280;74083;42.516;23.358;2023-11-18T07:15:22;87670.41;;;8.01;57.24
8047;BME280;74083;42.516;23.358;2023-11-18T07:18:07;87678.84;;;8.00;57.32
8047;BME280;74083;42.516;23.358;2023-11-18T07:20:53;87626.03;;;8.02;56.86
8047;BME280;74083;42.516;23.358;2023-11-18T07:23:38;87665.88;;;7.95;56.98
8047;BME280;74083;42.516;23.358;2023-11-18T07:26:26;87654.09;;;7.96;57.40
8047;BME280;74083;42.516;23.358;2023-11-18T07:29:12;87653.19;;;7.97;57.09
8047;BME280;74083;42.516;23.358;2023-11-18T07:31:58;87654.34;;;7.93;57.15
8047;BME280;74083;42.516;23.358;2023-11-18T07:34:45;87645.25;;;7.92;56.31
8047;BME280;74083;42.516;23.358;2023-11-18T07:37:31;87658.69;;;7.90;56.83
8047;BME280;74083;42.516;23.358;2023-11-18T07:40:18;87634.66;;;7.77;55.26
8047;BME280;74083;42.516;23.358;2023-11-18T07:43:14;87665.00;;;7.63;54.47
8047;BME280;74083;42.516;23.358;2023-11-18T07:45:59;87669.44;;;7.59;54.40
8047;BME280;74083;42.516;23.358;2023-11-18T07:48:46;87658.38;;;7.40;54.44
8047;BME280;74083;42.516;23.358;2023-11-18T07:51:32;87645.28;;;7.47;54.98
8047;BME280;74083;42.516;23.358;2023-11-18T07:54:17;87676.03;;;7.60;55.28
8047;BME280;74083;42.516;23.358;2023-11-18T07:57:04;87667.81;;;7.58;55.06
8047;BME280;74083;42.516;23.358;2023-11-18T07:59:56;87659.66;;;7.45;54.26
8047;BME280;74083;42.516;23.358;2023-11-18T08:02:49;87652.34;;;7.42;54.11
8047;BME280;74083;42.516;23.358;2023-11-18T08:05:38;87666.94;;;7.48;54.38
8047;BME280;74083;42.516;23.358;2023-11-18T08:08:25;87707.22;;;7.34;53.99
8047;BME280;74083;42.516;23.358;2023-11-18T08:11:11;87665.09;;;7.50;54.64
8047;BME280;74083;42.516;23.358;2023-11-18T08:13:57;87659.72;;;7.55;55.12
8047;BME280;74083;42.516;23.358;2023-11-18T08:16:45;87685.28;;;7.60;56.04
8047;BME280;74083;42.516;23.358;2023-11-18T08:19:31;87686.75;;;7.62;55.26
8047;BME280;74083;42.516;23.358;2023-11-18T08:22:18;87688.41;;;7.06;54.37
8047;BME280;74083;42.516;23.358;2023-11-18T08:25:07;87664.19;;;7.40;55.24
8047;BME280;74083;42.516;23.358;2023-11-18T08:27:53;87692.22;;;7.45;54.78
8047;BME280;74083;42.516;23.358;2023-11-18T08:30:38;87657.00;;;7.58;55.36
8047;BME280;74083;42.516;23.358;2023-11-18T08:33:25;87673.63;;;7.59;55.96
8047;BME280;74083;42.516;23.358;2023-11-18T08:36:12;87647.44;;;7.52;55.26
8047;BME280;74083;42.516;23.358;2023-11-18T08:38:58;87651.31;;;7.56;55.92
8047;BME280;74083;42.516;23.358;2023-11-18T08:41:43;87656.22;;;7.57;56.33
8047;BME280;74083;42.516;23.358;2023-11-18T08:44:29;87651.22;;;7.57;55.73
8047;BME280;74083;42.516;23.358;2023-11-18T08:47:16;87645.28;;;7.58;55.82
8047;BME280;74083;42.516;23.358;2023-11-18T08:50:06;87647.44;;;7.52;55.46
8047;BME280;74083;42.516;23.358;2023-11-18T08:52:56;87635.69;;;7.52;55.18
8047;BME280;74083;42.516;23.358;2023-11-18T08:55:43;87656.31;;;7.56;55.72
8047;BME280;74083;42.516;23.358;2023-11-18T08:58:35;87624.09;;;7.51;55.32
8047;BME280;74083;42.516;23.358;2023-11-18T09:01:22;87635.84;;;7.51;55.16
8047;BME280;74083;42.516;23.358;2023-11-18T09:04:12;87640.50;;;7.44;55.05
8047;BME280;74083;42.516;23.358;2023-11-18T09:07:00;87614.06;;;7.51;55.64
8047;BME280;74083;42.516;23.358;2023-11-18T09:09:46;87616.81;;;7.48;55.16
8047;BME280;74083;42.516;23.358;2023-11-18T09:12:33;87647.13;;;7.45;56.07
8047;BME280;74083;42.516;23.358;2023-11-18T09:15:19;87614.28;;;7.37;54.83
8047;BME280;74083;42.516;23.358;2023-11-18T09:18:06;87611.69;;;7.39;55.50
8047;BME280;74083;42.516;23.358;2023-11-18T09:20:54;87595.38;;;7.44;55.39
8047;BME280;74083;42.516;23.358;2023-11-18T09:23:42;87600.53;;;7.43;55.39
8047;BME280;74083;42.516;23.358;2023-11-18T09:26:29;87622.28;;;7.42;55.77
8047;BME280;74083;42.516;23.358;2023-11-18T09:29:15;87572.72;;;7.46;55.96
8047;BME280;74083;42.516;23.358;2023-11-18T09:32:02;87610.06;;;7.38;54.88
8047;BME280;74083;42.516;23.358;2023-11-18T09:34:50;87599.97;;;7.39;55.71
8047;BME280;74083;42.516;23.358;2023-11-18T09:37:37;87608.72;;;7.33;54.86
8047;BME280;74083;42.516;23.358;2023-11-18T09:40:25;87594.59;;;7.32;54.70
8047;BME280;74083;42.516;23.358;2023-11-18T09:43:16;87582.88;;;7.33;55.11
8047;BME280;74083;42.516;23.358;2023-11-18T09:46:04;87600.66;;;7.30;55.00
8047;BME280;74083;42.516;23.358;2023-11-18T09:49:06;87568.31;;;7.27;54.55
8047;BME280;74083;42.516;23.358;2023-11-18T09:52:03;87580.16;;;7.25;55.06
8047;BME280;74083;42.516;23.358;2023-11-18T09:54:57;87593.00;;;7.20;54.92
8047;BME280;74083;42.516;23.358;2023-11-18T09:57:51;87615.91;;;7.27;55.08
8047;BME280;74083;42.516;23.358;2023-11-18T10:00:42;87568.41;;;7.25;54.70
